Time;durP1;ratioP1;P1;durP2;ratioP2;P2;SDS_P1;SDS_P2;PMS_P1;PMS_P2;Temp;Humidity;BMP_temperature;BMP_pressure;BME280_temperature;BME280_humidity;BME280_pressure;Samples;Min_cycle;Max_cycle;Signal;HPM_P1;HPM_P2
2023/03/16 00:00:26;;;;;;;7.30;2.30;;;;;;;;;;4993440;28;20050;-65
2023/03/16 00:02:52;;;;;;;8.48;2.50;;;;;;;;;;4976164;28;20046;-65
2023/03/16 00:05:18;;;;;;;5.90;2.67;;;4.60;99.90;;;;;;4974151;28;20117;-65
2023/03/16 00:07:44;;;;;;;5.82;2.08;;;;;;;;;;4995009;28;20122;-65
2023/03/16 00:10:11;;;;;;;7.05;3.05;;;;;;;;;;4970430;28;20072;-65
2023/03/16 00:12:37;;;;;;;4.47;2.72;;;;;;;;;;4972180;28;20092;-65
2023/03/16 00:15:03;;;;;;;4.78;2.67;;;;;;;;;;4973145;28;20051;-65
2023/03/16 00:17:30;;;;;;;5.75;2.83;;;;;;;;;;4976438;28;20104;-65
2023/03/16 00:19:56;;;;;;;6.15;2.58;;;;;;;;;;4987059;28;20038;-65
2023/03/16 00:22:27;;;;;;;4.75;2.90;;;;;;;;;;4970157;28;20149;-65
2023/03/16 00:24:53;;;;;;;4.28;2.78;;;;;;;;;;5000874;28;20029;-65
2023/03/16 00:27:21;;;;;;;9.07;2.58;;;;;;;;;;4999907;28;20038;-65
2023/03/16 00:29:48;;;;;;;6.20;2.90;;;;;;;;;;4981363;28;20085;-65
2023/03/16 00:32:15;;;;;;;5.75;2.88;;;;;;;;;;4971642;28;20053;-65
2023/03/16 00:34:41;;;;;;;7.53;3.25;;;;;;;;;;4996453;28;20554;-65
2023/03/16 00:37:07;;;;;;;6.15;2.63;;;;;;;;;;4977360;28;20093;-65
2023/03/16 00:39:34;;;;;;;9.10;3.28;;;;;;;;;;4995431;28;20053;-65
2023/03/16 00:42:00;;;;;;;9.68;3.38;;;4.70;99.90;;;;;;4979221;28;20053;-66
2023/03/16 00:44:26;;;;;;;5.70;3.17;;;;;;;;;;4994542;28;20046;-65
2023/03/16 00:46:52;;;;;;;6.05;3.05;;;;;;;;;;4976188;28;20046;-65
2023/03/16 00:49:18;;;;;;;7.80;3.10;;;;;;;;;;4991599;28;20645;-65
2023/03/16 00:51:45;;;;;;;7.57;3.80;;;;;;;;;;4977240;28;20052;-65
2023/03/16 00:54:11;;;;;;;5.82;2.80;;;;;;;;;;4979824;28;20049;-65
2023/03/16 00:56:37;;;;;;;5.15;2.78;;;;;;;;;;4987320;28;20049;-65
2023/03/16 00:59:04;;;;;;;4.95;3.13;;;;;;;;;;4967667;28;20516;-65
2023/03/16 01:01:31;;;;;;;5.03;2.70;;;;;;;;;;4969872;28;20061;-65
2023/03/16 01:03:58;;;;;;;4.43;2.40;;;;;;;;;;4995191;28;20041;-65
2023/03/16 01:06:25;;;;;;;5.07;2.53;;;;;;;;;;4990703;28;20581;-65
2023/03/16 01:08:51;;;;;;;5.20;3.22;;;;;;;;;;4990543;28;20504;-65
2023/03/16 01:11:18;;;;;;;10.63;3.10;;;;;;;;;;4971435;28;20069;-65
2023/03/16 01:13:48;;;;;;;4.40;3.13;;;;;;;;;;4991331;28;20819;-65
2023/03/16 01:16:14;;;;;;;4.82;3.42;;;;;;;;;;4996127;28;20108;-65
2023/03/16 01:18:40;;;;;;;5.10;2.80;;;;;;;;;;4975875;28;20076;-65
2023/03/16 01:21:07;;;;;;;3.20;2.63;;;;;;;;;;4971128;28;20129;-65
2023/03/16 01:23:34;;;;;;;4.88;2.97;;;;;;;;;;4971534;28;20054;-65
2023/03/16 01:26:01;;;;;;;5.47;3.00;;;;;;;;;;4969884;28;20049;-65
2023/03/16 01:28:28;;;;;;;4.47;2.95;;;;;;;;;;4988246;28;20050;-65
2023/03/16 01:30:56;;;;;;;8.02;3.10;;;;;;;;;;4981616;28;20041;-65
2023/03/16 01:33:22;;;;;;;6.80;3.60;;;;;;;;;;5000219;28;20043;-65
2023/03/16 01:35:52;;;;;;;9.25;3.40;;;;;;;;;;4978138;28;20121;-65
2023/03/16 01:38:18;;;;;;;4.28;3.10;;;;;;;;;;4994474;28;20135;-65
2023/03/16 01:40:44;;;;;;;5.95;3.20;;;;;;;;;;4966007;28;20053;-65
2023/03/16 01:43:10;;;;;;;5.85;3.40;;;;;;;;;;4995720;28;20042;-65
2023/03/16 01:45:59;;;;;;;6.63;3.42;;;;;;;;;;4996522;28;20042;-65
2023/03/16 01:48:26;;;;;;;6.22;3.20;;;;;;;;;;4996967;28;20053;-65
2023/03/16 01:50:52;;;;;;;7.22;4.30;;;;;;;;;;4997255;28;20527;-65
2023/03/16 01:53:20;;;;;;;9.35;3.83;;;;;;;;;;4978792;28;20038;-65
2023/03/16 01:55:47;;;;;;;7.43;3.53;;;;;;;;;;4994269;28;20074;-66
2023/03/16 01:58:13;;;;;;;4.63;3.22;;;;;;;;;;4997702;28;20058;-65
2023/03/16 02:00:40;;;;;;;6.90;3.13;;;;;;;;;;4981517;28;20042;-65
2023/03/16 02:03:15;;;;;;;6.93;3.85;;;;;;;;;;4984802;28;20575;-65
2023/03/16 02:05:45;;;;;;;6.13;3.53;;;;;;;;;;4996501;28;20105;-66
2023/03/16 02:08:11;;;;;;;10.57;3.50;;;;;;;;;;4973377;28;20061;-65
2023/03/16 02:10:38;;;;;;;10.25;3.25;;;;;;;;;;4994131;28;20103;-65
2023/03/16 02:13:04;;;;;;;5.63;3.53;;;;;;;;;;4990192;28;20043;-65
2023/03/16 02:15:30;;;;;;;5.25;3.17;;;;;;;;;;5002780;28;20514;-65
2023/03/16 02:17:56;;;;;;;5.38;3.35;;;;;;;;;;4963129;28;20046;-65
2023/03/16 02:20:29;;;;;;;5.47;3.05;;;;;;;;;;4971169;28;20500;-65
2023/03/16 02:22:55;;;;;;;5.82;3.10;;;;;;;;;;4975818;28;20488;-65
2023/03/16 02:25:28;;;;;;;7.07;3.40;;;;;;;;;;4983882;28;20042;-65
2023/03/16 02:28:08;;;;;;;5.63;3.42;;;;;;;;;;4975950;28;20054;-65
2023/03/16 02:30:34;;;;;;;6.95;3.65;;;;;;;;;;4971157;28;20050;-65
2023/03/16 02:33:00;;;;;;;6.47;3.65;;;;;;;;;;4995785;28;20077;-65
2023/03/16 02:35:26;;;;;;;9.48;4.57;;;;;;;;;;4976305;28;20043;-65
2023/03/16 02:37:52;;;;;;;4.68;4.10;;;;;;;;;;4976621;28;20120;-65
2023/03/16 02:40:23;;;;;;;10.43;4.13;;;;;;;;;;4991007;28;20053;-65
2023/03/16 02:43:10;;;;;;;7.28;3.72;;;4.70;99.90;;;;;;4998243;28;20046;-65
2023/03/16 02:45:53;;;;;;;5.47;3.38;;;;;;;;;;4992981;28;20050;-65
2023/03/16 02:48:42;;;;;;;6.53;3.88;;;;;;;;;;4997293;28;20535;-65
2023/03/16 02:51:08;;;;;;;5.80;3.63;;;;;;;;;;4965757;28;20088;-65
2023/03/16 02:53:34;;;;;;;7.90;3.60;;;;;;;;;;4980008;28;20043;-65
2023/03/16 02:56:01;;;;;;;8.95;5.25;;;;;;;;;;4978261;28;20038;-65
2023/03/16 02:58:28;;;;;;;6.65;4.15;;;;;;;;;;4992401;28;20077;-65
2023/03/16 03:00:55;;;;;;;5.80;4.03;;;;;;;;;;4986002;28;20048;-65
2023/03/16 03:03:21;;;;;;;8.05;4.20;;;;;;;;;;4993199;28;20575;-66
2023/03/16 03:05:47;;;;;;;8.48;4.53;;;;;;;;;;4991104;28;20042;-65
2023/03/16 03:08:14;;;;;;;7.15;4.13;;;;;;;;;;4972807;28;20152;-65
2023/03/16 03:10:39;;;;;;;7.45;4.38;;;;;;;;;;4970070;28;20464;-65
2023/03/16 03:13:08;;;;;;;6.38;3.70;;;;;;;;;;4989500;28;20120;-65
2023/03/16 03:15:34;;;;;;;6.80;4.15;;;;;;;;;;4971788;28;20077;-65
2023/03/16 03:18:01;;;;;;;8.13;4.30;;;;;;;;;;4995840;28;20519;-65
2023/03/16 03:20:27;;;;;;;8.30;4.07;;;;;;;;;;4969115;28;20046;-65
2023/03/16 03:22:53;;;;;;;7.07;3.92;;;;;;;;;;4984775;28;20050;-65
2023/03/16 03:25:19;;;;;;;5.65;4.40;;;;;;;;;;4981260;28;20088;-65
2023/03/16 03:27:46;;;;;;;11.63;5.22;;;;;;;;;;4987846;28;20049;-65
2023/03/16 03:30:13;;;;;;;7.72;4.00;;;;;;;;;;4987934;28;20050;-65
2023/03/16 03:32:39;;;;;;;10.68;4.47;;;;;;;;;;4972236;28;20038;-65
2023/03/16 03:35:06;;;;;;;8.15;4.00;;;;;;;;;;4970230;28;20053;-65
2023/03/16 03:37:32;;;;;;;8.20;4.97;;;;;;;;;;4978021;28;20042;-65
2023/03/16 03:39:58;;;;;;;10.10;4.18;;;;;;;;;;4990663;28;20568;-65
2023/03/16 03:42:24;;;;;;;8.23;4.72;;;;;;;;;;4976459;28;20042;-66
2023/03/16 03:44:50;;;;;;;12.43;5.25;;;;;;;;;;4989465;28;20125;-65
2023/03/16 03:47:17;;;;;;;7.82;4.43;;;;;;;;;;4975582;28;20185;-65
2023/03/16 03:49:43;;;;;;;8.55;5.07;;;;;;;;;;4987946;28;20500;-66
2023/03/16 03:52:09;;;;;;;7.65;4.68;;;;;;;;;;4968824;28;20053;-66
2023/03/16 03:54:36;;;;;;;7.90;5.00;;;;;;;;;;4987530;28;20069;-65
2023/03/16 03:57:02;;;;;;;7.65;4.82;;;;;;;;;;4987210;28;20089;-65
2023/03/16 03:59:28;;;;;;;5.90;4.57;;;;;;;;;;4973261;28;20053;-65
2023/03/16 04:01:54;;;;;;;7.15;4.60;;;;;;;;;;4991713;28;20046;-65
2023/03/16 04:04:20;;;;;;;8.15;5.57;;;;;;;;;;4996368;28;20045;-65
2023/03/16 04:06:46;;;;;;;11.07;5.30;;;;;;;;;;4975835;28;20800;-65
2023/03/16 04:09:12;;;;;;;9.45;5.47;;;;;;;;;;4980485;28;20053;-65
2023/03/16 04:11:38;;;;;;;9.48;4.95;;;;;;;;;;4990821;28;20118;-65
2023/03/16 04:14:04;;;;;;;9.23;5.38;;;;;;;;;;4975181;28;20041;-65
2023/03/16 04:16:30;;;;;;;6.53;4.85;;;;;;;;;;4998153;28;20039;-65
2023/03/16 04:18:56;;;;;;;7.70;4.85;;;;;;;;;;4990468;28;20076;-65
2023/03/16 04:21:22;;;;;;;8.18;5.43;;;;;;;;;;4984485;28;20653;-65
2023/03/16 04:23:53;;;;;;;6.93;5.18;;;;;;;;;;4986936;28;20038;-65
2023/03/16 04:26:19;;;;;;;8.95;5.53;;;;;;;;;;4991148;28;20042;-65
2023/03/16 04:28:45;;;;;;;12.02;5.18;;;;;;;;;;4969830;28;20045;-66
2023/03/16 04:31:11;;;;;;;8.95;5.72;;;;;;;;;;4985066;28;20504;-65
2023/03/16 04:33:37;;;;;;;9.13;5.35;;;;;;;;;;4976182;28;20121;-65
2023/03/16 04:36:04;;;;;;;11.85;5.72;;;;;;;;;;4977149;28;20694;-65
2023/03/16 04:38:32;;;;;;;11.00;5.32;;;;;;;;;;4986121;28;20057;-65
2023/03/16 04:40:58;;;;;;;8.23;5.70;;;;;;;;;;4969108;28;20116;-65
2023/03/16 04:43:24;;;;;;;10.15;5.90;;;;;;;;;;4991568;28;20053;-65
2023/03/16 04:45:50;;;;;;;12.30;6.10;;;;;;;;;;4978604;28;20034;-65
2023/03/16 04:48:16;;;;;;;7.28;4.93;;;;;;;;;;4988387;28;20049;-65
2023/03/16 04:50:42;;;;;;;9.75;5.60;;;;;;;;;;4969941;28;20121;-65
2023/03/16 04:53:08;;;;;;;9.13;4.68;;;;;;;;;;4970468;28;20117;-65
2023/03/16 04:55:34;;;;;;;8.68;5.68;;;;;;;;;;4973703;28;20636;-65
2023/03/16 04:58:00;;;;;;;8.60;4.38;;;;;;;;;;4989397;28;20065;-65
2023/03/16 05:00:27;;;;;;;9.77;5.80;;;;;;;;;;4985056;28;20042;-65
2023/03/16 05:02:53;;;;;;;9.13;5.72;;;;;;;;;;4968997;28;20050;-65
2023/03/16 05:05:20;;;;;;;10.90;5.35;;;;;;;;;;4969843;28;20864;-65
2023/03/16 05:07:47;;;;;;;11.20;5.10;;;;;;;;;;4992788;28;20042;-65
2023/03/16 05:10:15;;;;;;;11.80;5.18;;;;;;;;;;4992787;28;20049;-65
2023/03/16 05:12:41;;;;;;;10.00;6.68;;;;;;;;;;4990863;28;20585;-65
2023/03/16 05:15:07;;;;;;;7.07;4.70;;;;;;;;;;4968769;28;20054;-65
2023/03/16 05:17:33;;;;;;;8.05;5.00;;;;;;;;;;4988085;28;20041;-65
2023/03/16 05:20:00;;;;;;;11.00;5.93;;;;;;;;;;4979243;28;20061;-66
2023/03/16 05:22:26;;;;;;;6.97;4.80;;;;;;;;;;4975330;28;20507;-65
2023/03/16 05:24:52;;;;;;;9.68;5.93;;;;;;;;;;4979287;28;20464;-65
2023/03/16 05:27:18;;;;;;;11.68;5.40;;;;;;;;;;4987743;28;20113;-65
2023/03/16 05:29:44;;;;;;;8.77;5.68;;;;;;;;;;4970320;28;20514;-66
2023/03/16 05:32:11;;;;;;;12.63;5.95;;;;;;;;;;4982482;28;20049;-65
2023/03/16 05:34:37;;;;;;;7.18;4.93;;;;;;;;;;4987396;28;20060;-65
2023/03/16 05:37:03;;;;;;;10.27;5.45;;;;;;;;;;4995790;28;20046;-65
2023/03/16 05:39:29;;;;;;;8.15;5.30;;;;;;;;;;4987168;28;20046;-65
2023/03/16 05:41:56;;;;;;;8.85;5.25;;;;;;;;;;4972028;28;20140;-65
2023/03/16 05:44:23;;;;;;;7.82;5.05;;;;;;;;;;4975870;28;20141;-65
2023/03/16 05:46:49;;;;;;;11.02;5.00;;;;;;;;;;4977180;28;20144;-65
2023/03/16 05:49:15;;;;;;;10.25;5.75;;;;;;;;;;4979559;28;20411;-65
2023/03/16 05:51:41;;;;;;;8.90;5.70;;;;;;;;;;4975477;28;20054;-65
2023/03/16 05:54:07;;;;;;;8.18;5.43;;;;;;;;;;4974909;28;20050;-65
2023/03/16 05:56:33;;;;;;;11.15;5.95;;;;;;;;;;4997492;28;20050;-65
2023/03/16 05:58:59;;;;;;;10.68;5.65;;;;;;;;;;4972043;28;20121;-65
2023/03/16 06:01:26;;;;;;;9.40;6.47;;;;;;;;;;4972280;28;20045;-65
2023/03/16 06:03:52;;;;;;;11.00;5.43;;;;;;;;;;4971859;28;20046;-65
2023/03/16 06:06:19;;;;;;;9.32;5.65;;;;;;;;;;4975443;28;20046;-65
2023/03/16 06:08:45;;;;;;;12.40;6.07;;;;;;;;;;4999505;28;20049;-65
2023/03/16 06:11:11;;;;;;;8.68;4.97;;;;;;;;;;4993696;28;20377;-65
2023/03/16 06:13:38;;;;;;;7.50;5.28;;;;;;;;;;4990289;28;20053;-65
2023/03/16 06:16:05;;;;;;;10.80;6.00;;;;;;;;;;4997314;28;20031;-65
2023/03/16 06:18:31;;;;;;;9.93;5.68;;;;;;;;;;4992141;28;20046;-65
2023/03/16 06:20:57;;;;;;;10.10;5.22;;;;;;;;;;4988741;28;20836;-65
2023/03/16 06:23:23;;;;;;;13.43;7.28;;;;;;;;;;4989443;28;20050;-65
2023/03/16 06:25:49;;;;;;;9.57;6.10;;;;;;;;;;4993353;28;20052;-65
2023/03/16 06:28:16;;;;;;;13.38;6.50;;;;;;;;;;4974717;28;20104;-65
2023/03/16 06:30:42;;;;;;;8.35;5.75;;;;;;;;;;4992184;28;20571;-65
2023/03/16 06:33:08;;;;;;;8.10;5.75;;;;;;;;;;4996873;28;20554;-65
2023/03/16 06:35:34;;;;;;;9.98;6.28;;;;;;;;;;4977942;28;20081;-65
2023/03/16 06:37:59;;;;;;;10.07;6.20;;;5.10;99.90;;;;;;4974383;28;20153;-65
2023/03/16 06:40:26;;;;;;;10.20;5.38;;;;;;;;;;4975895;28;20054;-65
2023/03/16 06:42:52;;;;;;;11.48;5.85;;;;;;;;;;4973550;28;20046;-65
2023/03/16 06:45:21;;;;;;;8.40;5.53;;;;;;;;;;4978530;28;20056;-65
2023/03/16 06:47:47;;;;;;;9.00;5.38;;;;;;;;;;4991011;28;20452;-65
2023/03/16 06:50:13;;;;;;;10.75;5.65;;;;;;;;;;4971175;28;20461;-67
2023/03/16 06:52:40;;;;;;;9.23;5.38;;;;;;;;;;4977603;28;20050;-67
2023/03/16 06:55:06;;;;;;;9.68;5.55;;;;;;;;;;4974453;28;20885;-67
2023/03/16 06:57:32;;;;;;;9.18;5.88;;;;;;;;;;4984881;28;20061;-66
2023/03/16 06:59:58;;;;;;;9.57;5.47;;;;;;;;;;4973221;28;20140;-66
2023/03/16 07:02:24;;;;;;;10.57;5.80;;;;;;;;;;4988858;28;20039;-66
2023/03/16 07:04:50;;;;;;;9.63;5.18;;;5.20;99.90;;;;;;4994619;28;20038;-67
2023/03/16 07:07:18;;;;;;;6.32;4.38;;;;;;;;;;4996308;28;20048;-67
2023/03/16 07:09:44;;;;;;;11.13;5.97;;;;;;;;;;4974518;28;20772;-66
2023/03/16 07:12:10;;;;;;;9.18;5.15;;;;;;;;;;4995221;28;20145;-67
2023/03/16 07:14:36;;;;;;;7.05;5.35;;;;;;;;;;4995258;28;20523;-67
2023/03/16 07:17:02;;;;;;;8.13;5.25;;;;;;;;;;4972944;28;20042;-68
2023/03/16 07:19:28;;;;;;;13.98;5.07;;;;;;;;;;4989080;28;20053;-67
2023/03/16 07:21:54;;;;;;;7.90;5.10;;;;;;;;;;4972345;28;20077;-67
2023/03/16 07:24:21;;;;;;;8.15;4.85;;;;;;;;;;4970125;28;20150;-67
2023/03/16 07:26:47;;;;;;;7.97;5.22;;;;;;;;;;4992716;28;20538;-67
2023/03/16 07:29:14;;;;;;;7.05;4.50;;;;;;;;;;4986221;28;20054;-67
2023/03/16 07:31:40;;;;;;;10.63;6.13;;;;;;;;;;4992358;28;20096;-67
2023/03/16 07:34:06;;;;;;;10.23;5.15;;;;;;;;;;4996869;28;20412;-68
2023/03/16 07:36:32;;;;;;;7.45;3.92;;;;;;;;;;4992084;28;20058;-67
2023/03/16 07:38:58;;;;;;;7.68;4.43;;;;;;;;;;4967216;28;20056;-66
2023/03/16 07:41:24;;;;;;;7.45;4.57;;;;;;;;;;4968863;28;20077;-67
2023/03/16 07:43:52;;;;;;;8.35;4.30;;;;;;;;;;4988834;28;20042;-66
2023/03/16 07:46:18;;;;;;;7.95;5.32;;;;;;;;;;4970654;28;20046;-68
2023/03/16 07:48:44;;;;;;;8.13;4.93;;;;;;;;;;4990140;28;20416;-67
2023/03/16 07:51:11;;;;;;;8.68;4.43;;;5.40;99.90;;;;;;4987380;28;20046;-67
2023/03/16 07:53:38;;;;;;;7.07;4.38;;;;;;;;;;4974149;28;20053;-66
2023/03/16 07:56:04;;;;;;;9.70;4.95;;;;;;;;;;4972923;28;20042;-66
2023/03/16 07:58:31;;;;;;;12.07;5.07;;;;;;;;;;4971761;28;20112;-67
2023/03/16 08:00:57;;;;;;;8.43;4.30;;;;;;;;;;4969110;28;20791;-67
2023/03/16 08:03:24;;;;;;;12.02;4.88;;;;;;;;;;4972207;28;20180;-67
2023/03/16 08:05:50;;;;;;;11.43;4.95;;;;;;;;;;4987100;28;20127;-67
2023/03/16 08:08:16;;;;;;;8.02;4.45;;;;;;;;;;4987392;28;20047;-67
2023/03/16 08:10:42;;;;;;;6.60;3.60;;;;;;;;;;4970600;28;20439;-67
2023/03/16 08:13:08;;;;;;;10.07;4.80;;;;;;;;;;4973564;28;20050;-68
2023/03/16 08:15:34;;;;;;;7.65;4.65;;;;;;;;;;4975133;28;20070;-67
2023/03/16 08:18:05;;;;;;;9.15;4.90;;;;;;;;;;4969394;28;20758;-66
2023/03/16 08:20:31;;;;;;;9.32;5.07;;;;;;;;;;4971946;28;20093;-66
2023/03/16 08:22:57;;;;;;;8.70;4.97;;;;;;;;;;4991832;28;20630;-67
2023/03/16 08:25:23;;;;;;;8.25;4.97;;;;;;;;;;4972627;28;20066;-67
2023/03/16 08:27:49;;;;;;;10.02;5.60;;;;;;;;;;4986497;28;20129;-67
2023/03/16 08:30:15;;;;;;;8.32;4.97;;;;;;;;;;4967305;28;20400;-67
2023/03/16 08:32:41;;;;;;;9.48;5.15;;;;;;;;;;4988752;28;20145;-66
2023/03/16 08:35:08;;;;;;;11.00;5.03;;;;;;;;;;4971464;28;20077;-67
2023/03/16 08:37:34;;;;;;;7.57;3.85;;;;;;;;;;4971820;28;20167;-67
2023/03/16 08:40:00;;;;;;;10.98;5.13;;;;;;;;;;4986913;28;20084;-67
2023/03/16 08:42:30;;;;;;;9.25;5.10;;;;;;;;;;4988408;28;20598;-67
2023/03/16 08:44:57;;;;;;;8.00;4.85;;;;;;;;;;4974351;28;20049;-68
2023/03/16 08:47:23;;;;;;;12.93;6.57;;;;;;;;;;4973108;28;20460;-68
2023/03/16 08:49:51;;;;;;;8.15;5.13;;;;;;;;;;4976419;28;20137;-67
2023/03/16 08:52:17;;;;;;;11.90;6.00;;;;;;;;;;4986480;28;20823;-67
2023/03/16 08:54:43;;;;;;;11.05;5.30;;;;;;;;;;4987024;28;20056;-68
2023/03/16 08:57:09;;;;;;;10.98;5.95;;;;;;;;;;4987653;28;20058;-67
2023/03/16 08:59:35;;;;;;;6.18;4.65;;;;;;;;;;4981502;28;20064;-66
2023/03/16 09:02:03;;;;;;;9.38;4.75;;;;;;;;;;4969542;28;20046;-67
2023/03/16 09:04:29;;;;;;;7.32;5.13;;;;;;;;;;4975952;28;20065;-66
2023/03/16 09:06:55;;;;;;;8.63;4.93;;;;;;;;;;4992163;28;20042;-67
2023/03/16 09:09:21;;;;;;;7.50;4.50;;;;;;;;;;4973241;28;20108;-66
2023/03/16 09:11:48;;;;;;;7.80;5.43;;;;;;;;;;4999788;28;20058;-66
2023/03/16 09:14:14;;;;;;;7.93;5.22;;;;;;;;;;4992643;28;20050;-68
2023/03/16 09:16:40;;;;;;;10.70;6.10;;;;;;;;;;4972791;28;20133;-67
2023/03/16 09:19:06;;;;;;;9.20;4.95;;;;;;;;;;4974407;28;20057;-66
2023/03/16 09:21:34;;;;;;;7.70;4.38;;;;;;;;;;5002043;28;20092;-67
2023/03/16 09:24:01;;;;;;;6.93;4.05;;;;;;;;;;4998072;28;20081;-67
2023/03/16 09:26:27;;;;;;;8.95;4.53;;;;;;;;;;5003644;28;20046;-67
2023/03/16 09:28:53;;;;;;;8.13;5.07;;;;;;;;;;4991647;28;20046;-67
2023/03/16 09:31:20;;;;;;;7.95;5.45;;;;;;;;;;4993225;28;20041;-67
2023/03/16 09:33:46;;;;;;;9.50;5.30;;;;;;;;;;4993710;28;20042;-67
2023/03/16 09:36:13;;;;;;;6.85;4.45;;;;;;;;;;4995107;28;20522;-67
2023/03/16 09:38:39;;;;;;;9.73;5.03;;;;;;;;;;4986985;28;20073;-67
2023/03/16 09:41:10;;;;;;;8.27;4.80;;;;;;;;;;4988221;28;20089;-67
2023/03/16 09:43:47;;;;;;;7.65;5.40;;;;;;;;;;4973604;28;20485;-67
2023/03/16 09:46:18;;;;;;;10.50;4.95;;;;;;;;;;4974599;28;20053;-68
2023/03/16 09:48:45;;;;;;;10.48;5.43;;;;;;;;;;4990550;28;21016;-67
2023/03/16 09:51:16;;;;;;;6.82;4.53;;;;;;;;;;4973268;28;20467;-68
2023/03/16 09:53:43;;;;;;;13.10;4.90;;;;;;;;;;4994632;28;20050;-67
2023/03/16 09:56:16;;;;;;;8.07;4.13;;;;;;;;;;4977332;28;20412;-67
2023/03/16 09:58:41;;;;;;;8.60;4.60;;;6.00;99.90;;;;;;4993161;28;20512;-67
2023/03/16 10:01:21;;;;;;;11.02;4.68;;;;;;;;;;4988881;28;20038;-67
2023/03/16 10:03:47;;;;;;;10.13;4.88;;;;;;;;;;4989660;28;20045;-67
2023/03/16 10:06:15;;;;;;;7.10;4.38;;;;;;;;;;4989765;28;20089;-67
2023/03/16 10:08:45;;;;;;;9.27;4.82;;;;;;;;;;4989358;28;20056;-67
2023/03/16 10:11:18;;;;;;;9.57;4.15;;;;;;;;;;4997036;28;20096;-69
2023/03/16 10:14:00;;;;;;;7.88;4.65;;;;;;;;;;4999004;28;20491;-67
2023/03/16 10:16:40;;;;;;;10.18;4.70;;;;;;;;;;4996516;28;20063;-66
2023/03/16 10:19:13;;;;;;;6.40;4.90;;;;;;;;;;4999983;28;20073;-68
2023/03/16 10:21:40;;;;;;;9.70;4.63;;;;;;;;;;4972862;28;20101;-66
2023/03/16 10:24:24;;;;;;;11.43;4.50;;;6.40;99.90;;;;;;4996790;28;20048;-68
2023/03/16 10:26:54;;;;;;;5.72;3.58;;;;;;;;;;4994755;28;20373;-67
2023/03/16 10:29:20;;;;;;;7.35;3.58;;;;;;;;;;4986674;28;20057;-69
2023/03/16 10:31:46;;;;;;;8.55;5.18;;;;;;;;;;4990097;28;20046;-69
2023/03/16 10:34:14;;;;;;;8.57;4.57;;;;;;;;;;4973349;28;20046;-69
2023/03/16 10:36:43;;;;;;;8.15;4.75;;;;;;;;;;4972457;28;20515;-68
2023/03/16 10:39:16;;;;;;;7.57;4.65;;;;;;;;;;4988352;28;20089;-69
2023/03/16 10:41:49;;;;;;;8.65;4.85;;;;;;;;;;4968825;28;20058;-69
2023/03/16 10:44:17;;;;;;;13.38;4.90;;;;;;;;;;4982014;28;20052;-69
2023/03/16 10:46:46;;;;;;;9.90;4.88;;;;;;;;;;4979087;28;20054;-69
2023/03/16 10:49:38;;;;;;;8.63;4.90;;;;;;;;;;4970739;28;20050;-69
2023/03/16 10:52:13;;;;;;;9.75;4.10;;;;;;;;;;4983644;28;20058;-68
2023/03/16 10:54:40;;;;;;;8.55;4.32;;;;;;;;;;4999242;28;20806;-68
2023/03/16 10:57:14;;;;;;;8.10;4.10;;;;;;;;;;4981768;28;20058;-69
2023/03/16 10:59:40;;;;;;;7.43;4.43;;;;;;;;;;4972998;28;20392;-69
2023/03/16 11:02:15;;;;;;;11.15;4.30;;;;;;;;;;4970553;28;20054;-69
2023/03/16 11:04:41;;;;;;;12.35;5.10;;;;;;;;;;4969745;28;20055;-67
2023/03/16 11:07:08;;;;;;;6.93;3.92;;;;;;;;;;4974382;28;20750;-67
2023/03/16 11:09:36;;;;;;;8.77;4.65;;;7.10;99.90;;;;;;4971570;28;20050;-67
2023/03/16 11:12:32;;;;;;;8.90;3.90;;;;;;;;;;4972042;28;20053;-67
2023/03/16 11:15:03;;;;;;;7.13;4.28;;;;;;;;;;4963922;28;20089;-65
2023/03/16 11:17:37;;;;;;;10.50;4.55;;;7.30;99.90;;;;;;4971726;28;20055;-64
2023/03/16 11:20:16;;;;;;;7.20;4.57;;;7.60;99.90;;;;;;4973208;28;20042;-65
2023/03/16 11:22:44;;;;;;;7.90;4.40;;;;;;;;;;4971280;28;20420;-65
2023/03/16 11:25:20;;;;;;;8.30;4.90;;;;;;;;;;4975495;28;20051;-65
2023/03/16 11:27:58;;;;;;;9.45;4.45;;;;;;;;;;4969049;28;20049;-65
2023/03/16 11:30:35;;;;;;;6.05;4.05;;;;;;;;;;4964942;28;20129;-65
2023/03/16 11:33:01;;;;;;;8.40;4.43;;;7.90;99.90;;;;;;4974018;28;20049;-65
2023/03/16 11:35:33;;;;;;;8.02;4.15;;;;;;;;;;4971478;28;20035;-65
2023/03/16 11:38:02;;;;;;;7.60;4.00;;;;;;;;;;4972308;28;20047;-65
2023/03/16 11:40:44;;;;;;;13.00;4.07;;;;;;;;;;4967444;28;20149;-65
2023/03/16 11:43:13;;;;;;;8.23;4.70;;;;;;;;;;4966975;28;20516;-65
2023/03/16 11:45:44;;;;;;;9.23;4.40;;;;;;;;;;4969711;28;20051;-65
2023/03/16 11:48:19;;;;;;;8.32;4.38;;;;;;;;;;4972833;28;20057;-65
2023/03/16 11:51:05;;;;;;;7.43;4.10;;;;;;;;;;4966027;28;20049;-62
2023/03/16 11:53:34;;;;;;;7.78;5.18;;;;;;;;;;4970796;28;20047;-62
2023/03/16 11:56:17;;;;;;;9.38;4.30;;;;;;;;;;4971293;28;20043;-63
2023/03/16 11:58:49;;;;;;;7.10;3.42;;;;;;;;;;4988285;28;20819;-63
2023/03/16 12:01:35;;;;;;;7.85;4.10;;;;;;;;;;4967711;28;20054;-63
2023/03/16 12:04:03;;;;;;;4.57;3.60;;;;;;;;;;4991931;28;20049;-63
2023/03/16 12:10:02;;;;;;;9.10;3.22;;;;;;;;;;4992307;28;20081;-64
2023/03/16 12:12:33;;;;;;;6.43;3.10;;;;;;;;;;4963267;28;20046;-64
2023/03/16 12:15:08;;;;;;;5.03;3.03;;;;;;;;;;4990718;28;20751;-65
2023/03/16 12:17:36;;;;;;;5.28;4.07;;;;;;;;;;4999988;28;20046;-65
2023/03/16 12:20:04;;;;;;;5.70;3.33;;;;;;;;;;4983594;28;20045;-65
2023/03/16 12:22:50;;;;;;;7.78;3.40;;;;;;;;;;4979281;28;20133;-64
2023/03/16 12:25:21;;;;;;;6.90;3.55;;;;;;;;;;4993112;28;20038;-67
2023/03/16 12:27:48;;;;;;;5.85;3.83;;;;;;;;;;4992856;28;20042;-64
2023/03/16 12:30:24;;;;;;;4.80;2.63;;;9.20;99.90;;;;;;4986763;28;20057;-64
2023/03/16 12:33:12;;;;;;;6.53;3.50;;;;;;;;;;4984193;28;20504;-64
2023/03/16 12:35:57;;;;;;;6.10;3.30;;;;;;;;;;4991563;28;20080;-64
2023/03/16 12:38:41;;;;;;;5.32;3.20;;;;;;;;;;4990278;28;20117;-64
2023/03/16 12:41:32;;;;;;;4.72;3.33;;;;;;;;;;4990902;28;20554;-64
2023/03/16 12:43:58;;;;;;;7.18;3.42;;;;;;;;;;4995062;28;20042;-65
2023/03/16 12:46:29;;;;;;;8.20;3.67;;;;;;;;;;5000044;28;20062;-65
2023/03/16 12:48:56;;;;;;;5.03;3.83;;;;;;;;;;4969602;28;20054;-65
2023/03/16 12:51:32;;;;;;;5.20;2.95;;;;;;;;;;4974201;28;20461;-65
2023/03/16 12:53:59;;;;;;;6.18;3.50;;;;;;;;;;4997740;28;20043;-65
2023/03/16 12:56:30;;;;;;;8.05;2.90;;;;;;;;;;4974977;28;20504;-65
2023/03/16 12:58:57;;;;;;;7.20;3.45;;;;;;;;;;4993944;28;20538;-65
2023/03/16 13:01:36;;;;;;;4.32;3.30;;;;;;;;;;4999461;28;20050;-65
2023/03/16 13:04:07;;;;;;;7.72;3.53;;;;;;;;;;4991729;28;20511;-65
2023/03/16 13:06:35;;;;;;;5.55;2.78;;;;;;;;;;4986394;28;20085;-64
2023/03/16 13:09:03;;;;;;;7.25;4.22;;;;;;;;;;4994701;28;20100;-65
2023/03/16 13:11:40;;;;;;;8.32;4.00;;;;;;;;;;4977593;28;20058;-65
2023/03/16 13:14:07;;;;;;;5.53;3.17;;;;;;;;;;4976718;28;20056;-65
2023/03/16 13:16:36;;;;;;;5.38;3.83;;;;;;;;;;4999201;28;20050;-65
2023/03/16 13:19:16;;;;;;;5.15;3.08;;;;;;;;;;4975993;28;20050;-65
2023/03/16 13:21:42;;;;;;;5.38;3.15;;;;;;;;;;4979090;28;20050;-66
2023/03/16 13:24:17;;;;;;;5.13;3.38;;;;;;;;;;4974587;28;20043;-65
2023/03/16 13:26:43;;;;;;;;;;;;;;;;;;4993753;28;20470;-66
2023/03/16 13:29:26;;;;;;;4.00;3.28;;;9.80;99.90;;;;;;4964127;28;19925;-66
2023/03/16 13:31:54;;;;;;;8.45;3.20;;;;;;;;;;4973298;28;20551;-66
2023/03/16 13:34:30;;;;;;;6.10;3.35;;;;;;;;;;4975607;28;20056;-66
2023/03/16 13:36:57;;;;;;;5.82;3.15;;;9.80;99.90;;;;;;4995171;28;20073;-66
2023/03/16 13:39:27;;;;;;;5.70;3.08;;;;;;;;;;4970967;28;20060;-66
2023/03/16 13:42:14;;;;;;;6.63;3.42;;;;;;;;;;4975645;28;20041;-66
2023/03/16 13:44:40;;;;;;;7.05;3.78;;;;;;;;;;4989266;28;20573;-66
2023/03/16 13:47:07;;;;;;;8.02;3.20;;;;;;;;;;4969420;28;20050;-66
2023/03/16 13:49:33;;;;;;;4.70;3.22;;;;;;;;;;4978467;28;20057;-66
2023/03/16 13:52:02;;;;;;;8.15;3.60;;;;;;;;;;4988979;28;20046;-66
2023/03/16 13:54:29;;;;;;;3.95;2.80;;;;;;;;;;4974709;28;20045;-66
2023/03/16 13:57:00;;;;;;;3.95;3.00;;;;;;;;;;5004639;28;21911;-66
2023/03/16 13:59:26;;;;;;;4.93;3.22;;;;;;;;;;4966769;28;20538;-66
2023/03/16 14:02:00;;;;;;;8.00;3.80;;;;;;;;;;4974783;28;20092;-66
2023/03/16 14:04:29;;;;;;;8.50;3.90;;;;;;;;;;4986124;28;20462;-66
2023/03/16 14:06:57;;;;;;;5.53;3.20;;;;;;;;;;4998485;28;20045;-66
2023/03/16 14:09:26;;;;;;;5.60;2.88;;;;;;;;;;4986635;28;20048;-66
2023/03/16 14:11:52;;;;;;;5.00;3.65;;;;;;;;;;4994068;28;20120;-65
2023/03/16 14:14:28;;;;;;;5.57;3.40;;;;;;;;;;4997399;28;20125;-66
2023/03/16 14:17:01;;;;;;;5.05;3.42;;;;;;;;;;4977624;28;20061;-66
2023/03/16 14:19:34;;;;;;;6.57;3.55;;;;;;;;;;4970269;28;20556;-66
2023/03/16 14:22:03;;;;;;;9.25;4.65;;;;;;;;;;4977593;28;20490;-66
2023/03/16 14:24:34;;;;;;;5.32;3.60;;;;;;;;;;4984659;28;20068;-66
2023/03/16 14:27:18;;;;;;;5.38;3.10;;;;;;;;;;4982133;28;20140;-66
2023/03/16 14:29:45;;;;;;;7.28;3.58;;;;;;;;;;4985813;28;20575;-66
2023/03/16 14:32:40;;;;;;;6.40;3.42;;;10.20;99.90;;;;;;4972746;28;20049;-65
2023/03/16 14:35:15;;;;;;;5.78;3.47;;;10.40;99.90;;;;;;4963531;28;20107;-66
2023/03/16 14:37:41;;;;;;;5.72;3.55;;;;;;;;;;4973313;28;20049;-66
2023/03/16 14:40:27;;;;;;;6.00;3.67;;;10.30;99.90;;;;;;4984830;28;20167;-66
2023/03/16 14:42:53;;;;;;;;;;;;;;;;;;4984121;28;20154;-66
2023/03/16 14:45:20;;;;;;;6.10;3.22;;;;;;;;;;4996190;28;20045;-66
2023/03/16 14:47:47;;;;;;;6.40;3.33;;;;;;;;;;4976514;28;20050;-66